Terminal Aerodrome Forecast
Issued by NWS

Home | Current Version | Previous Version | Text Only | Print | Product List | Glossary Off
Versions: 1 2 3 4 5 6 7 8 9 10 11 12

000
FTUS43 KOAX 021141
TAFCDR
TAF
KCDR 021141Z 0212/0312 VRB05KT P6SM SKC
     FM021800 01010KT P6SM SCT070
     FM022100 01008KT P6SM VCTS BKN100CB
     FM030200 02003KT P6SM BKN150=

USA.gov is the U.S. government's official web portal to all federal, state and local government web resources and services.